Casstown, OH

6:03 AM EDT on September 03, 2015 (GMT -0400)
Concord Township Troy | | Change Station
CLOSE
Current Station
Personal Weather Station
Location: Troy, OH
Elevation: 840 ft
Nearby Weather Stations

Elev 840 ft 40.01 °N, 84.21 °W | Updated 10 minutes ago

Partly Cloudy
Partly Cloudy
66.3 °F
Feels Like 66.3 °F
N
0.0
Wind Variable Wind from East
Gusts 0.0 mph

Today
High -- | Low -- °F
--% Chance of Precip.
Yesterday
High -- | Low -- °F
Precip. -- in
7:05 AM 8:05 PM
Waning Gibbous, 72% visible
Pressure 30.01 in
Visibility 8.0 miles
Clouds Few 5500 ft
Scattered Clouds 12000 ft
Dew Point 65 °F
Humidity 96%
Rainfall 0.00 in
Snow Depth Not available.
UV 0 out of 12
Pollen 10.40 out of 12
Air Quality Not available.
Flu Activity Not available.
METAR KDAY 030956Z 25003KT 8SM FEW055 SCT120 20/19 A3003 RMK AO2 SLP162 T02000194
Pressure 30.01 in
Visibility 8.0 miles
Clouds Few 5500 ft
Scattered Clouds 12000 ft
Dew Point 65 °F
Humidity 96%
Rainfall 0.00 in
Snow Depth Not available.
UV 0 out of 12
Pollen 10.40 out of 12
Air Quality Not available.
Flu Activity Not available.
METAR KDAY 030956Z 25003KT 8SM FEW055 SCT120 20/19 A3003 RMK AO2 SLP162 T02000194

10-Day Weather Forecast

×

Almanac

Astronomy

Sep. 03, 2015 Rise Set
Actual Time
Civil Twilight
Nautical Twilight
Astronomical Twilight
Moon
Length of Visible Light
Length of Day
Tomorrow will be .
, % of the Moon is Illuminated

Today's Extremes

State Highs State Lows

Community

WunderPhotos

Upload Photos

1,851,923 photos uploaded!

WunderBlogs® & News

Nearby

Air Quality

  Air Quality AQ Index Pollutant
Not available.

Snow Depth

Station Depth Elevation

Earthquake Activity

City Distance Mag. Time & Date
Minimum magnitude displayed is 2.5.

Coastal Water Temperatures

Place Temperature

Stations

Nearby Weather Stations

Station Location Temp. Windchill Dew Point Humidity Wind Precip. Elev Updated Type